Terminal Aerodrome Forecast
Issued by NWS Wakefield, VA

Home | Current Version | Previous Version | Text Only | Print | Product List | Glossary On
Versions: 1 2 3 4 5 6 7 8 9 10 11 12 13 14 15 16 17 18 19 20
777
FTUS41 KAKQ 201415 AAA
TAFRIC
TAF AMD
KRIC 201415Z 2014/2112 16005KT P6SM OVC060
     FM201500 16006KT 5SM -RA BR OVC050
     FM201700 16004KT 4SM -RA BR OVC025
     FM201800 VRB03KT 3SM -RA OVC009
     FM202100 16004KT P6SM BKN010
     FM210200 00000KT 4SM -DZ BR BKN010
     FM210700 00000KT 2SM -DZ BR BKN005=

USA.gov is the U.S. government's official web portal to all federal, state and local government web resources and services.